sensor_id;sensor_type;location;lat;lon;timestamp;P1;durP1;ratioP1;P2;durP2;ratioP2
64595;SDS011;51003;51.628;6.670;2023-08-20T00:00:09;16.60;;;5.60;;
64595;SDS011;51003;51.628;6.670;2023-08-20T00:02:37;7.43;;;4.90;;
64595;SDS011;51003;51.628;6.670;2023-08-20T00:05:06;6.07;;;5.10;;
64595;SDS011;51003;51.628;6.670;2023-08-20T00:07:35;7.60;;;4.70;;
64595;SDS011;51003;51.628;6.670;2023-08-20T00:10:01;7.23;;;5.23;;
64595;SDS011;51003;51.628;6.670;2023-08-20T00:12:29;6.10;;;5.13;;
64595;SDS011;51003;51.628;6.670;2023-08-20T00:17:20;9.80;;;5.47;;
64595;SDS011;51003;51.628;6.670;2023-08-20T00:19:47;6.00;;;4.90;;
64595;SDS011;51003;51.628;6.670;2023-08-20T00:22:14;7.07;;;5.40;;
64595;SDS011;51003;51.628;6.670;2023-08-20T00:24:40;6.33;;;5.00;;
64595;SDS011;51003;51.628;6.670;2023-08-20T00:27:06;7.87;;;5.37;;
64595;SDS011;51003;51.628;6.670;2023-08-20T00:29:32;5.53;;;4.77;;
64595;SDS011;51003;51.628;6.670;2023-08-20T00:31:58;5.30;;;4.77;;
64595;SDS011;51003;51.628;6.670;2023-08-20T00:34:23;6.70;;;5.10;;
64595;SDS011;51003;51.628;6.670;2023-08-20T00:36:49;6.03;;;5.20;;
64595;SDS011;51003;51.628;6.670;2023-08-20T00:39:15;7.67;;;5.47;;
64595;SDS011;51003;51.628;6.670;2023-08-20T00:41:41;5.80;;;4.90;;
64595;SDS011;51003;51.628;6.670;2023-08-20T00:44:06;12.70;;;5.43;;
64595;SDS011;51003;51.628;6.670;2023-08-20T00:46:32;7.50;;;4.83;;
64595;SDS011;51003;51.628;6.670;2023-08-20T00:48:57;6.70;;;5.30;;
64595;SDS011;51003;51.628;6.670;2023-08-20T00:51:23;6.73;;;4.37;;
64595;SDS011;51003;51.628;6.670;2023-08-20T00:53:50;6.27;;;5.20;;
64595;SDS011;51003;51.628;6.670;2023-08-20T00:56:15;7.60;;;5.43;;
64595;SDS011;51003;51.628;6.670;2023-08-20T00:58:41;12.10;;;5.47;;
64595;SDS011;51003;51.628;6.670;2023-08-20T01:01:07;7.53;;;5.07;;
64595;SDS011;51003;51.628;6.670;2023-08-20T01:03:33;8.37;;;5.40;;
64595;SDS011;51003;51.628;6.670;2023-08-20T01:06:03;9.47;;;5.20;;
64595;SDS011;51003;51.628;6.670;2023-08-20T01:09:05;7.83;;;5.17;;
64595;SDS011;51003;51.628;6.670;2023-08-20T01:11:37;5.87;;;4.97;;
64595;SDS011;51003;51.628;6.670;2023-08-20T01:14:16;8.10;;;5.07;;
64595;SDS011;51003;51.628;6.670;2023-08-20T01:16:42;7.90;;;5.07;;
64595;SDS011;51003;51.628;6.670;2023-08-20T01:19:09;5.40;;;4.87;;
64595;SDS011;51003;51.628;6.670;2023-08-20T01:21:39;7.00;;;5.03;;
64595;SDS011;51003;51.628;6.670;2023-08-20T01:24:17;8.43;;;5.13;;
64595;SDS011;51003;51.628;6.670;2023-08-20T01:29:31;9.90;;;5.97;;
64595;SDS011;51003;51.628;6.670;2023-08-20T01:31:56;9.27;;;5.33;;
64595;SDS011;51003;51.628;6.670;2023-08-20T01:34:24;10.67;;;6.10;;
64595;SDS011;51003;51.628;6.670;2023-08-20T01:36:50;7.80;;;5.60;;
64595;SDS011;51003;51.628;6.670;2023-08-20T01:39:16;6.77;;;5.43;;
64595;SDS011;51003;51.628;6.670;2023-08-20T01:41:43;9.60;;;5.20;;
64595;SDS011;51003;51.628;6.670;2023-08-20T01:44:09;6.77;;;5.40;;
64595;SDS011;51003;51.628;6.670;2023-08-20T01:46:35;7.80;;;5.30;;
64595;SDS011;51003;51.628;6.670;2023-08-20T01:49:01;16.57;;;5.30;;
64595;SDS011;51003;51.628;6.670;2023-08-20T01:51:28;7.10;;;5.30;;
64595;SDS011;51003;51.628;6.670;2023-08-20T01:53:53;15.93;;;5.63;;
64595;SDS011;51003;51.628;6.670;2023-08-20T01:56:19;6.60;;;5.13;;
64595;SDS011;51003;51.628;6.670;2023-08-20T01:58:45;13.73;;;5.60;;
64595;SDS011;51003;51.628;6.670;2023-08-20T02:01:11;5.70;;;5.07;;
64595;SDS011;51003;51.628;6.670;2023-08-20T02:03:36;6.60;;;5.20;;
64595;SDS011;51003;51.628;6.670;2023-08-20T02:06:03;8.20;;;5.77;;
64595;SDS011;51003;51.628;6.670;2023-08-20T02:08:29;6.83;;;5.37;;
64595;SDS011;51003;51.628;6.670;2023-08-20T02:11:04;5.83;;;5.17;;
64595;SDS011;51003;51.628;6.670;2023-08-20T02:13:32;6.40;;;5.57;;
64595;SDS011;51003;51.628;6.670;2023-08-20T02:16:01;8.13;;;5.90;;
64595;SDS011;51003;51.628;6.670;2023-08-20T02:18:28;8.87;;;5.60;;
64595;SDS011;51003;51.628;6.670;2023-08-20T02:20:54;6.83;;;5.10;;
64595;SDS011;51003;51.628;6.670;2023-08-20T02:23:20;9.63;;;6.13;;
64595;SDS011;51003;51.628;6.670;2023-08-20T02:25:46;6.23;;;5.40;;
64595;SDS011;51003;51.628;6.670;2023-08-20T02:28:11;6.60;;;5.40;;
64595;SDS011;51003;51.628;6.670;2023-08-20T02:30:41;6.23;;;5.63;;
64595;SDS011;51003;51.628;6.670;2023-08-20T02:33:07;9.23;;;5.57;;
64595;SDS011;51003;51.628;6.670;2023-08-20T02:35:33;7.70;;;5.87;;
64595;SDS011;51003;51.628;6.670;2023-08-20T02:37:58;6.77;;;5.63;;
64595;SDS011;51003;51.628;6.670;2023-08-20T02:40:24;6.20;;;5.23;;
64595;SDS011;51003;51.628;6.670;2023-08-20T02:42:49;7.10;;;5.63;;
64595;SDS011;51003;51.628;6.670;2023-08-20T02:45:15;8.13;;;5.73;;
64595;SDS011;51003;51.628;6.670;2023-08-20T02:47:41;6.93;;;5.40;;
64595;SDS011;51003;51.628;6.670;2023-08-20T02:50:07;7.33;;;5.43;;
64595;SDS011;51003;51.628;6.670;2023-08-20T02:52:33;10.20;;;5.07;;
64595;SDS011;51003;51.628;6.670;2023-08-20T02:54:59;10.40;;;5.30;;
64595;SDS011;51003;51.628;6.670;2023-08-20T02:57:25;5.50;;;5.00;;
64595;SDS011;51003;51.628;6.670;2023-08-20T02:59:51;6.47;;;5.80;;
64595;SDS011;51003;51.628;6.670;2023-08-20T03:42:51;10.70;;;6.77;;
64595;SDS011;51003;51.628;6.670;2023-08-20T07:32:00;41.33;;;23.43;;
64595;SDS011;51003;51.628;6.670;2023-08-20T09:19:20;20.53;;;13.97;;
64595;SDS011;51003;51.628;6.670;2023-08-20T09:21:45;19.93;;;14.10;;
64595;SDS011;51003;51.628;6.670;2023-08-20T09:24:12;15.53;;;11.87;;
64595;SDS011;51003;51.628;6.670;2023-08-20T09:26:37;16.80;;;14.23;;
64595;SDS011;51003;51.628;6.670;2023-08-20T09:29:02;17.70;;;13.30;;
64595;SDS011;51003;51.628;6.670;2023-08-20T09:31:38;17.23;;;14.13;;
64595;SDS011;51003;51.628;6.670;2023-08-20T09:34:04;16.43;;;13.43;;
64595;SDS011;51003;51.628;6.670;2023-08-20T09:36:30;24.20;;;20.60;;
64595;SDS011;51003;51.628;6.670;2023-08-20T09:39:00;28.30;;;19.13;;
64595;SDS011;51003;51.628;6.670;2023-08-20T09:41:27;22.53;;;17.43;;
64595;SDS011;51003;51.628;6.670;2023-08-20T09:43:55;19.57;;;15.00;;
64595;SDS011;51003;51.628;6.670;2023-08-20T09:46:21;14.50;;;12.47;;
64595;SDS011;51003;51.628;6.670;2023-08-20T09:48:49;14.70;;;12.93;;
64595;SDS011;51003;51.628;6.670;2023-08-20T09:51:16;15.20;;;13.57;;
64595;SDS011;51003;51.628;6.670;2023-08-20T09:56:34;14.97;;;13.30;;
64595;SDS011;51003;51.628;6.670;2023-08-20T09:59:03;16.50;;;14.87;;
64595;SDS011;51003;51.628;6.670;2023-08-20T10:01:29;15.07;;;13.57;;
64595;SDS011;51003;51.628;6.670;2023-08-20T10:03:55;14.53;;;13.03;;
64595;SDS011;51003;51.628;6.670;2023-08-20T10:06:21;14.57;;;13.20;;
64595;SDS011;51003;51.628;6.670;2023-08-20T10:08:46;13.40;;;12.10;;
64595;SDS011;51003;51.628;6.670;2023-08-20T10:11:14;13.30;;;12.07;;
64595;SDS011;51003;51.628;6.670;2023-08-20T10:13:39;12.40;;;11.20;;
64595;SDS011;51003;51.628;6.670;2023-08-20T10:16:05;11.87;;;10.70;;
64595;SDS011;51003;51.628;6.670;2023-08-20T10:18:31;12.80;;;11.43;;
64595;SDS011;51003;51.628;6.670;2023-08-20T10:21:01;11.07;;;10.17;;
64595;SDS011;51003;51.628;6.670;2023-08-20T10:23:27;11.07;;;9.67;;
64595;SDS011;51003;51.628;6.670;2023-08-20T10:25:53;7.83;;;7.33;;
64595;SDS011;51003;51.628;6.670;2023-08-20T10:28:23;8.40;;;7.60;;
64595;SDS011;51003;51.628;6.670;2023-08-20T10:31:02;9.17;;;7.03;;
64595;SDS011;51003;51.628;6.670;2023-08-20T10:33:30;8.93;;;8.13;;
64595;SDS011;51003;51.628;6.670;2023-08-20T10:35:55;7.77;;;7.17;;
64595;SDS011;51003;51.628;6.670;2023-08-20T10:38:20;10.27;;;6.80;;
64595;SDS011;51003;51.628;6.670;2023-08-20T10:40:59;6.27;;;5.77;;
64595;SDS011;51003;51.628;6.670;2023-08-20T10:43:35;7.43;;;5.70;;
64595;SDS011;51003;51.628;6.670;2023-08-20T10:46:23;6.30;;;5.70;;
64595;SDS011;51003;51.628;6.670;2023-08-20T10:48:51;6.80;;;6.30;;
64595;SDS011;51003;51.628;6.670;2023-08-20T10:51:17;7.30;;;6.27;;
64595;SDS011;51003;51.628;6.670;2023-08-20T10:56:24;7.33;;;6.17;;
64595;SDS011;51003;51.628;6.670;2023-08-20T10:59:08;5.20;;;4.60;;
64595;SDS011;51003;51.628;6.670;2023-08-20T11:01:58;4.67;;;4.37;;
64595;SDS011;51003;51.628;6.670;2023-08-20T11:04:30;4.50;;;4.10;;
64595;SDS011;51003;51.628;6.670;2023-08-20T11:07:00;4.77;;;4.30;;
64595;SDS011;51003;51.628;6.670;2023-08-20T11:09:27;4.25;;;3.83;;
64595;SDS011;51003;51.628;6.670;2023-08-20T11:11:53;4.35;;;3.95;;
64595;SDS011;51003;51.628;6.670;2023-08-20T11:14:19;5.43;;;3.10;;
64595;SDS011;51003;51.628;6.670;2023-08-20T11:16:45;3.97;;;3.67;;
64595;SDS011;51003;51.628;6.670;2023-08-20T11:19:12;3.97;;;3.67;;
64595;SDS011;51003;51.628;6.670;2023-08-20T11:21:38;4.38;;;3.97;;
64595;SDS011;51003;51.628;6.670;2023-08-20T11:24:04;4.38;;;3.28;;
64595;SDS011;51003;51.628;6.670;2023-08-20T11:26:31;3.33;;;3.10;;
64595;SDS011;51003;51.628;6.670;2023-08-20T11:28:57;3.20;;;2.90;;
64595;SDS011;51003;51.628;6.670;2023-08-20T11:31:22;3.58;;;2.70;;
64595;SDS011;51003;51.628;6.670;2023-08-20T11:33:49;6.28;;;2.55;;
64595;SDS011;51003;51.628;6.670;2023-08-20T11:36:19;2.60;;;2.50;;
64595;SDS011;51003;51.628;6.670;2023-08-20T11:38:52;2.78;;;2.58;;
64595;SDS011;51003;51.628;6.670;2023-08-20T11:41:21;2.58;;;2.38;;
64595;SDS011;51003;51.628;6.670;2023-08-20T11:43:48;3.10;;;2.70;;
64595;SDS011;51003;51.628;6.670;2023-08-20T11:46:14;3.33;;;2.55;;
64595;SDS011;51003;51.628;6.670;2023-08-20T11:51:37;2.70;;;2.50;;
64595;SDS011;51003;51.628;6.670;2023-08-20T11:54:04;2.75;;;2.55;;
64595;SDS011;51003;51.628;6.670;2023-08-20T11:56:42;3.42;;;2.38;;
64595;SDS011;51003;51.628;6.670;2023-08-20T11:59:10;3.00;;;2.47;;
64595;SDS011;51003;51.628;6.670;2023-08-20T12:01:36;2.85;;;2.65;;
64595;SDS011;51003;51.628;6.670;2023-08-20T12:04:08;3.53;;;2.95;;
64595;SDS011;51003;51.628;6.670;2023-08-20T12:06:35;3.65;;;2.58;;
64595;SDS011;51003;51.628;6.670;2023-08-20T12:09:01;2.37;;;2.27;;
64595;SDS011;51003;51.628;6.670;2023-08-20T12:11:29;3.43;;;2.60;;
64595;SDS011;51003;51.628;6.670;2023-08-20T12:13:55;3.33;;;2.80;;
64595;SDS011;51003;51.628;6.670;2023-08-20T12:16:24;2.90;;;2.20;;
64595;SDS011;51003;51.628;6.670;2023-08-20T12:18:50;2.30;;;2.10;;
64595;SDS011;51003;51.628;6.670;2023-08-20T12:21:16;2.57;;;2.30;;
64595;SDS011;51003;51.628;6.670;2023-08-20T12:23:41;4.55;;;2.15;;
64595;SDS011;51003;51.628;6.670;2023-08-20T12:26:06;2.25;;;2.00;;
64595;SDS011;51003;51.628;6.670;2023-08-20T12:28:33;2.53;;;2.33;;
64595;SDS011;51003;51.628;6.670;2023-08-20T12:30:58;3.47;;;2.10;;
64595;SDS011;51003;51.628;6.670;2023-08-20T12:33:24;2.05;;;1.95;;
64595;SDS011;51003;51.628;6.670;2023-08-20T12:35:49;1.90;;;1.80;;
64595;SDS011;51003;51.628;6.670;2023-08-20T12:38:18;2.17;;;2.08;;
64595;SDS011;51003;51.628;6.670;2023-08-20T12:40:44;1.80;;;1.70;;
64595;SDS011;51003;51.628;6.670;2023-08-20T12:43:09;2.00;;;1.80;;
64595;SDS011;51003;51.628;6.670;2023-08-20T12:45:34;1.70;;;1.60;;
64595;SDS011;51003;51.628;6.670;2023-08-20T12:48:00;1.70;;;1.60;;
64595;SDS011;51003;51.628;6.670;2023-08-20T12:50:25;2.00;;;1.85;;
64595;SDS011;51003;51.628;6.670;2023-08-20T12:52:51;2.72;;;1.90;;
64595;SDS011;51003;51.628;6.670;2023-08-20T12:55:16;1.88;;;1.77;;
64595;SDS011;51003;51.628;6.670;2023-08-20T12:57:52;2.25;;;2.00;;
64595;SDS011;51003;51.628;6.670;2023-08-20T13:00:24;1.90;;;1.80;;
64595;SDS011;51003;51.628;6.670;2023-08-20T13:02:51;2.97;;;2.05;;
64595;SDS011;51003;51.628;6.670;2023-08-20T13:05:17;1.80;;;1.70;;
64595;SDS011;51003;51.628;6.670;2023-08-20T13:07:42;1.75;;;1.65;;
64595;SDS011;51003;51.628;6.670;2023-08-20T13:10:08;1.77;;;1.67;;
64595;SDS011;51003;51.628;6.670;2023-08-20T13:12:34;2.20;;;1.88;;
64595;SDS011;51003;51.628;6.670;2023-08-20T13:15:01;2.20;;;1.90;;
64595;SDS011;51003;51.628;6.670;2023-08-20T13:17:28;3.13;;;1.83;;
64595;SDS011;51003;51.628;6.670;2023-08-20T13:19:54;2.33;;;2.00;;
64595;SDS011;51003;51.628;6.670;2023-08-20T13:22:19;1.77;;;1.55;;
64595;SDS011;51003;51.628;6.670;2023-08-20T13:24:45;1.90;;;1.80;;
64595;SDS011;51003;51.628;6.670;2023-08-20T13:27:10;1.92;;;1.70;;
64595;SDS011;51003;51.628;6.670;2023-08-20T13:29:35;2.05;;;1.85;;
64595;SDS011;51003;51.628;6.670;2023-08-20T13:32:01;2.25;;;1.90;;
64595;SDS011;51003;51.628;6.670;2023-08-20T13:34:27;2.45;;;2.00;;
64595;SDS011;51003;51.628;6.670;2023-08-20T13:36:52;1.73;;;1.63;;
64595;SDS011;51003;51.628;6.670;2023-08-20T13:39:17;1.83;;;1.73;;
64595;SDS011;51003;51.628;6.670;2023-08-20T13:41:43;1.77;;;1.67;;
64595;SDS011;51003;51.628;6.670;2023-08-20T13:44:09;1.63;;;1.52;;
64595;SDS011;51003;51.628;6.670;2023-08-20T13:46:34;2.23;;;1.83;;
64595;SDS011;51003;51.628;6.670;2023-08-20T13:49:00;2.50;;;1.70;;
64595;SDS011;51003;51.628;6.670;2023-08-20T13:51:25;3.10;;;1.90;;
64595;SDS011;51003;51.628;6.670;2023-08-20T13:53:51;2.83;;;1.70;;
64595;SDS011;51003;51.628;6.670;2023-08-20T13:56:16;1.73;;;1.63;;
64595;SDS011;51003;51.628;6.670;2023-08-20T13:58:41;3.40;;;1.70;;
64595;SDS011;51003;51.628;6.670;2023-08-20T14:01:07;1.70;;;1.60;;
64595;SDS011;51003;51.628;6.670;2023-08-20T14:03:32;1.77;;;1.67;;
64595;SDS011;51003;51.628;6.670;2023-08-20T14:05:57;1.70;;;1.60;;
64595;SDS011;51003;51.628;6.670;2023-08-20T14:08:23;1.77;;;1.63;;
64595;SDS011;51003;51.628;6.670;2023-08-20T14:10:48;1.80;;;1.53;;
64595;SDS011;51003;51.628;6.670;2023-08-20T14:13:13;1.70;;;1.60;;
64595;SDS011;51003;51.628;6.670;2023-08-20T14:15:39;1.87;;;1.77;;
64595;SDS011;51003;51.628;6.670;2023-08-20T14:18:04;2.63;;;1.50;;
64595;SDS011;51003;51.628;6.670;2023-08-20T14:20:30;1.60;;;1.50;;
64595;SDS011;51003;51.628;6.670;2023-08-20T14:22:55;1.50;;;1.40;;
64595;SDS011;51003;51.628;6.670;2023-08-20T14:25:20;2.30;;;1.90;;
64595;SDS011;51003;51.628;6.670;2023-08-20T14:27:46;1.70;;;1.60;;
64595;SDS011;51003;51.628;6.670;2023-08-20T14:30:11;1.80;;;1.47;;
64595;SDS011;51003;51.628;6.670;2023-08-20T14:32:36;1.40;;;1.30;;
64595;SDS011;51003;51.628;6.670;2023-08-20T14:35:02;1.73;;;1.63;;
64595;SDS011;51003;51.628;6.670;2023-08-20T14:37:28;1.60;;;1.50;;
64595;SDS011;51003;51.628;6.670;2023-08-20T14:39:53;1.93;;;1.60;;
64595;SDS011;51003;51.628;6.670;2023-08-20T14:42:19;2.17;;;1.70;;
64595;SDS011;51003;51.628;6.670;2023-08-20T14:44:44;1.83;;;1.73;;
64595;SDS011;51003;51.628;6.670;2023-08-20T14:47:10;1.77;;;1.67;;
64595;SDS011;51003;51.628;6.670;2023-08-20T14:49:36;1.80;;;1.70;;
64595;SDS011;51003;51.628;6.670;2023-08-20T14:52:01;2.33;;;1.60;;
64595;SDS011;51003;51.628;6.670;2023-08-20T14:54:27;1.60;;;1.50;;
64595;SDS011;51003;51.628;6.670;2023-08-20T14:56:52;1.67;;;1.57;;
64595;SDS011;51003;51.628;6.670;2023-08-20T14:59:18;1.53;;;1.43;;
64595;SDS011;51003;51.628;6.670;2023-08-20T15:01:43;2.60;;;1.50;;
64595;SDS011;51003;51.628;6.670;2023-08-20T15:04:08;2.40;;;1.60;;
64595;SDS011;51003;51.628;6.670;2023-08-20T15:06:34;10.03;;;1.37;;
64595;SDS011;51003;51.628;6.670;2023-08-20T15:08:59;1.87;;;1.77;;
64595;SDS011;51003;51.628;6.670;2023-08-20T15:11:25;4.30;;;1.90;;
64595;SDS011;51003;51.628;6.670;2023-08-20T15:13:52;1.60;;;1.50;;
64595;SDS011;51003;51.628;6.670;2023-08-20T15:16:18;1.90;;;1.80;;
64595;SDS011;51003;51.628;6.670;2023-08-20T15:18:43;1.87;;;1.77;;
64595;SDS011;51003;51.628;6.670;2023-08-20T15:21:08;1.70;;;1.60;;
64595;SDS011;51003;51.628;6.670;2023-08-20T15:23:35;1.70;;;1.60;;
64595;SDS011;51003;51.628;6.670;2023-08-20T15:26:01;1.40;;;1.30;;
64595;SDS011;51003;51.628;6.670;2023-08-20T15:28:26;4.50;;;1.90;;
64595;SDS011;51003;51.628;6.670;2023-08-20T15:30:54;4.43;;;1.70;;
64595;SDS011;51003;51.628;6.670;2023-08-20T15:33:20;2.40;;;1.50;;
64595;SDS011;51003;51.628;6.670;2023-08-20T15:35:46;2.30;;;1.33;;
64595;SDS011;51003;51.628;6.670;2023-08-20T15:38:11;1.83;;;1.50;;
64595;SDS011;51003;51.628;6.670;2023-08-20T15:40:40;2.30;;;1.77;;
64595;SDS011;51003;51.628;6.670;2023-08-20T15:43:05;1.50;;;1.40;;
64595;SDS011;51003;51.628;6.670;2023-08-20T15:45:31;1.40;;;1.30;;
64595;SDS011;51003;51.628;6.670;2023-08-20T15:47:57;1.47;;;1.30;;
64595;SDS011;51003;51.628;6.670;2023-08-20T15:50:22;1.73;;;1.40;;
64595;SDS011;51003;51.628;6.670;2023-08-20T15:52:47;1.50;;;1.40;;
64595;SDS011;51003;51.628;6.670;2023-08-20T15:55:13;1.87;;;1.40;;
64595;SDS011;51003;51.628;6.670;2023-08-20T15:57:39;1.50;;;1.40;;
64595;SDS011;51003;51.628;6.670;2023-08-20T16:00:04;1.30;;;1.20;;
64595;SDS011;51003;51.628;6.670;2023-08-20T16:02:30;1.30;;;1.20;;
64595;SDS011;51003;51.628;6.670;2023-08-20T16:04:56;1.50;;;1.40;;
64595;SDS011;51003;51.628;6.670;2023-08-20T16:07:21;2.00;;;1.47;;
64595;SDS011;51003;51.628;6.670;2023-08-20T16:09:46;1.73;;;1.27;;
64595;SDS011;51003;51.628;6.670;2023-08-20T16:12:12;2.77;;;1.50;;
64595;SDS011;51003;51.628;6.670;2023-08-20T16:14:37;1.30;;;1.20;;
64595;SDS011;51003;51.628;6.670;2023-08-20T16:17:05;1.70;;;1.43;;
64595;SDS011;51003;51.628;6.670;2023-08-20T16:19:31;2.60;;;1.57;;
64595;SDS011;51003;51.628;6.670;2023-08-20T16:21:56;1.50;;;1.40;;
64595;SDS011;51003;51.628;6.670;2023-08-20T16:24:22;1.50;;;1.40;;
64595;SDS011;51003;51.628;6.670;2023-08-20T16:26:47;1.40;;;1.30;;
64595;SDS011;51003;51.628;6.670;2023-08-20T16:29:12;1.60;;;1.30;;
64595;SDS011;51003;51.628;6.670;2023-08-20T16:31:38;1.60;;;1.50;;
64595;SDS011;51003;51.628;6.670;2023-08-20T16:34:03;2.57;;;1.53;;
64595;SDS011;51003;51.628;6.670;2023-08-20T16:36:28;1.40;;;1.30;;
64595;SDS011;51003;51.628;6.670;2023-08-20T16:38:54;1.60;;;1.50;;
64595;SDS011;51003;51.628;6.670;2023-08-20T16:41:19;1.30;;;1.20;;
64595;SDS011;51003;51.628;6.670;2023-08-20T16:43:45;1.40;;;1.30;;
64595;SDS011;51003;51.628;6.670;2023-08-20T16:46:11;3.37;;;1.30;;
64595;SDS011;51003;51.628;6.670;2023-08-20T16:48:36;2.03;;;1.33;;
64595;SDS011;51003;51.628;6.670;2023-08-20T16:51:02;3.07;;;1.37;;
64595;SDS011;51003;51.628;6.670;2023-08-20T16:53:27;2.03;;;1.50;;
64595;SDS011;51003;51.628;6.670;2023-08-20T16:55:54;4.13;;;1.40;;
64595;SDS011;51003;51.628;6.670;2023-08-20T16:58:20;4.53;;;1.40;;
64595;SDS011;51003;51.628;6.670;2023-08-20T17:00:46;3.37;;;1.50;;
64595;SDS011;51003;51.628;6.670;2023-08-20T17:03:12;1.97;;;1.87;;
64595;SDS011;51003;51.628;6.670;2023-08-20T17:05:37;1.60;;;1.40;;
64595;SDS011;51003;51.628;6.670;2023-08-20T17:08:03;2.00;;;1.40;;
64595;SDS011;51003;51.628;6.670;2023-08-20T17:10:28;1.73;;;1.43;;
64595;SDS011;51003;51.628;6.670;2023-08-20T17:12:54;4.07;;;1.47;;
64595;SDS011;51003;51.628;6.670;2023-08-20T17:15:20;2.13;;;1.40;;
64595;SDS011;51003;51.628;6.670;2023-08-20T17:17:45;3.90;;;1.17;;
64595;SDS011;51003;51.628;6.670;2023-08-20T17:20:11;2.43;;;1.37;;
64595;SDS011;51003;51.628;6.670;2023-08-20T17:22:37;2.20;;;1.23;;
64595;SDS011;51003;51.628;6.670;2023-08-20T17:25:02;1.40;;;1.20;;
64595;SDS011;51003;51.628;6.670;2023-08-20T17:27:28;6.00;;;1.40;;
64595;SDS011;51003;51.628;6.670;2023-08-20T17:29:53;4.17;;;1.50;;
64595;SDS011;51003;51.628;6.670;2023-08-20T17:32:19;1.70;;;1.30;;
64595;SDS011;51003;51.628;6.670;2023-08-20T17:34:44;3.23;;;1.30;;
64595;SDS011;51003;51.628;6.670;2023-08-20T17:37:09;1.20;;;1.10;;
64595;SDS011;51003;51.628;6.670;2023-08-20T17:39:35;1.90;;;1.47;;
64595;SDS011;51003;51.628;6.670;2023-08-20T17:42:00;5.07;;;1.63;;
64595;SDS011;51003;51.628;6.670;2023-08-20T17:44:25;5.70;;;1.83;;
64595;SDS011;51003;51.628;6.670;2023-08-20T17:46:51;4.43;;;1.80;;
64595;SDS011;51003;51.628;6.670;2023-08-20T17:49:16;2.30;;;1.87;;
64595;SDS011;51003;51.628;6.670;2023-08-20T17:51:42;1.93;;;1.60;;
64595;SDS011;51003;51.628;6.670;2023-08-20T17:54:07;3.40;;;1.73;;
64595;SDS011;51003;51.628;6.670;2023-08-20T17:56:33;1.53;;;1.40;;
64595;SDS011;51003;51.628;6.670;2023-08-20T17:58:58;5.77;;;1.50;;
64595;SDS011;51003;51.628;6.670;2023-08-20T18:01:24;3.10;;;1.27;;
64595;SDS011;51003;51.628;6.670;2023-08-20T18:03:49;3.53;;;1.40;;
64595;SDS011;51003;51.628;6.670;2023-08-20T18:06:15;1.43;;;1.33;;
64595;SDS011;51003;51.628;6.670;2023-08-20T18:08:41;2.47;;;1.50;;
64595;SDS011;51003;51.628;6.670;2023-08-20T18:11:07;2.80;;;1.30;;
64595;SDS011;51003;51.628;6.670;2023-08-20T18:13:33;2.70;;;1.70;;
64595;SDS011;51003;51.628;6.670;2023-08-20T18:15:59;6.33;;;1.60;;
64595;SDS011;51003;51.628;6.670;2023-08-20T18:18:24;2.40;;;1.60;;
64595;SDS011;51003;51.628;6.670;2023-08-20T18:20:50;2.00;;;1.60;;
64595;SDS011;51003;51.628;6.670;2023-08-20T18:23:15;3.10;;;1.40;;
64595;SDS011;51003;51.628;6.670;2023-08-20T18:25:41;1.63;;;1.40;;
64595;SDS011;51003;51.628;6.670;2023-08-20T18:28:08;2.37;;;1.40;;
64595;SDS011;51003;51.628;6.670;2023-08-20T18:30:33;1.67;;;1.50;;
64595;SDS011;51003;51.628;6.670;2023-08-20T18:32:59;2.17;;;1.60;;
64595;SDS011;51003;51.628;6.670;2023-08-20T18:35:24;2.90;;;1.50;;
64595;SDS011;51003;51.628;6.670;2023-08-20T18:37:50;2.10;;;1.50;;
64595;SDS011;51003;51.628;6.670;2023-08-20T18:40:15;2.40;;;1.33;;
64595;SDS011;51003;51.628;6.670;2023-08-20T18:42:40;4.50;;;1.30;;
64595;SDS011;51003;51.628;6.670;2023-08-20T18:45:06;2.20;;;1.40;;
64595;SDS011;51003;51.628;6.670;2023-08-20T18:47:32;2.70;;;1.70;;
64595;SDS011;51003;51.628;6.670;2023-08-20T18:49:57;1.73;;;1.40;;
64595;SDS011;51003;51.628;6.670;2023-08-20T18:52:23;3.67;;;1.83;;
64595;SDS011;51003;51.628;6.670;2023-08-20T18:54:49;1.70;;;1.30;;
64595;SDS011;51003;51.628;6.670;2023-08-20T18:57:15;1.73;;;1.37;;
64595;SDS011;51003;51.628;6.670;2023-08-20T18:59:41;7.70;;;1.90;;
64595;SDS011;51003;51.628;6.670;2023-08-20T19:02:08;1.80;;;1.47;;
64595;SDS011;51003;51.628;6.670;2023-08-20T19:04:33;2.80;;;2.07;;
64595;SDS011;51003;51.628;6.670;2023-08-20T19:06:58;3.10;;;1.90;;
64595;SDS011;51003;51.628;6.670;2023-08-20T19:09:26;4.67;;;2.10;;
64595;SDS011;51003;51.628;6.670;2023-08-20T19:11:52;4.30;;;1.93;;
64595;SDS011;51003;51.628;6.670;2023-08-20T19:14:17;1.80;;;1.70;;
64595;SDS011;51003;51.628;6.670;2023-08-20T19:16:42;3.90;;;2.20;;
64595;SDS011;51003;51.628;6.670;2023-08-20T19:19:08;5.30;;;2.20;;
64595;SDS011;51003;51.628;6.670;2023-08-20T19:21:34;3.27;;;2.27;;
64595;SDS011;51003;51.628;6.670;2023-08-20T19:23:59;4.63;;;2.10;;
64595;SDS011;51003;51.628;6.670;2023-08-20T19:26:28;2.03;;;1.80;;
64595;SDS011;51003;51.628;6.670;2023-08-20T19:28:54;2.43;;;1.97;;
64595;SDS011;51003;51.628;6.670;2023-08-20T19:31:20;2.40;;;1.70;;
64595;SDS011;51003;51.628;6.670;2023-08-20T19:33:46;2.70;;;1.87;;
64595;SDS011;51003;51.628;6.670;2023-08-20T19:36:12;4.60;;;1.80;;
64595;SDS011;51003;51.628;6.670;2023-08-20T19:38:37;3.10;;;2.00;;
64595;SDS011;51003;51.628;6.670;2023-08-20T19:41:03;2.33;;;1.80;;
64595;SDS011;51003;51.628;6.670;2023-08-20T19:43:28;5.33;;;1.77;;
64595;SDS011;51003;51.628;6.670;2023-08-20T19:45:54;2.50;;;1.73;;
64595;SDS011;51003;51.628;6.670;2023-08-20T19:48:19;2.67;;;2.20;;
64595;SDS011;51003;51.628;6.670;2023-08-20T19:50:45;2.83;;;2.10;;
64595;SDS011;51003;51.628;6.670;2023-08-20T19:53:10;3.17;;;2.00;;
64595;SDS011;51003;51.628;6.670;2023-08-20T19:55:36;3.40;;;2.00;;
64595;SDS011;51003;51.628;6.670;2023-08-20T19:58:01;4.07;;;2.77;;
64595;SDS011;51003;51.628;6.670;2023-08-20T20:00:28;4.73;;;2.40;;
64595;SDS011;51003;51.628;6.670;2023-08-20T20:02:54;3.47;;;2.27;;
64595;SDS011;51003;51.628;6.670;2023-08-20T20:05:20;3.67;;;2.10;;
64595;SDS011;51003;51.628;6.670;2023-08-20T20:07:46;3.80;;;2.13;;
64595;SDS011;51003;51.628;6.670;2023-08-20T20:10:11;4.77;;;2.93;;
64595;SDS011;51003;51.628;6.670;2023-08-20T20:12:38;5.57;;;2.60;;
64595;SDS011;51003;51.628;6.670;2023-08-20T20:15:04;3.70;;;2.33;;
64595;SDS011;51003;51.628;6.670;2023-08-20T20:17:30;3.77;;;2.10;;
64595;SDS011;51003;51.628;6.670;2023-08-20T20:19:57;2.10;;;1.80;;
64595;SDS011;51003;51.628;6.670;2023-08-20T20:22:22;3.97;;;2.40;;
64595;SDS011;51003;51.628;6.670;2023-08-20T20:24:50;4.10;;;2.23;;
64595;SDS011;51003;51.628;6.670;2023-08-20T20:27:16;3.57;;;2.50;;
64595;SDS011;51003;51.628;6.670;2023-08-20T20:29:41;6.70;;;1.90;;
64595;SDS011;51003;51.628;6.670;2023-08-20T20:32:06;2.33;;;1.80;;
64595;SDS011;51003;51.628;6.670;2023-08-20T20:34:32;3.97;;;2.13;;
64595;SDS011;51003;51.628;6.670;2023-08-20T20:36:57;4.80;;;2.40;;
64595;SDS011;51003;51.628;6.670;2023-08-20T20:39:23;2.67;;;1.80;;
64595;SDS011;51003;51.628;6.670;2023-08-20T20:41:48;4.30;;;2.23;;
64595;SDS011;51003;51.628;6.670;2023-08-20T20:44:13;2.10;;;1.90;;
64595;SDS011;51003;51.628;6.670;2023-08-20T20:46:39;2.20;;;1.97;;
64595;SDS011;51003;51.628;6.670;2023-08-20T20:49:04;2.70;;;2.23;;
64595;SDS011;51003;51.628;6.670;2023-08-20T20:51:30;3.20;;;1.90;;
64595;SDS011;51003;51.628;6.670;2023-08-20T20:53:56;7.07;;;2.47;;
64595;SDS011;51003;51.628;6.670;2023-08-20T20:56:21;2.00;;;1.90;;
64595;SDS011;51003;51.628;6.670;2023-08-20T20:58:47;2.00;;;1.80;;
64595;SDS011;51003;51.628;6.670;2023-08-20T21:01:13;1.90;;;1.80;;
64595;SDS011;51003;51.628;6.670;2023-08-20T21:03:38;3.23;;;2.10;;
64595;SDS011;51003;51.628;6.670;2023-08-20T21:06:04;6.70;;;2.40;;